METAR AND TAF INFORMATION
METAR FOR LGTS
ADDS - METARS form results

(1808 UTC 21 July 2019)
Data provider http://aviationweather.gov/metar/data/
 
METAR text: LGTS 211750Z 16007KT CAVOK 29/17 Q1016 NOSIG
Conditions at: LGTS (THESSALONIKI/MIK, GR) observed 1750 UTC 21 July 2019
Temperature: 29.0°C (84°F)
Dewpoint: 17.0°C (63°F) [RH = 48%]
Pressure (altimeter): 30.00 inches Hg (1016.0 mb)
Winds: from the SSE (160 degrees) at 8 MPH (7 knots; 3.6 m/s)
Visibility: 6 or more miles (10+ km)
Ceiling: ceiling and visibility are OK
Clouds: unknown
Weather: no significant weather observed at this time

METAR text: LGTS 211720Z 17008KT CAVOK 30/17 Q1017 NOSIG
Conditions at: LGTS (THESSALONIKI/MIK, GR) observed 1720 UTC 21 July 2019
Temperature: 30.0°C (86°F)
Dewpoint: 17.0°C (63°F) [RH = 46%]
Pressure (altimeter): 30.03 inches Hg (1017.0 mb)
Winds: from the S (170 degrees) at 9 MPH (8 knots; 4.1 m/s)
Visibility: 6 or more miles (10+ km)
Ceiling: ceiling and visibility are OK
Clouds: unknown
Weather: no significant weather observed at this time

Forecast for: LGTS (THESSALONIKI/MIK, GR)
Text: TAF LGTS 211700Z 2118/2218 VRB03KT CAVOK
Forecast period: 1800 UTC 21 July 2019 to 1200 UTC 22 July 2019
Forecast type: FROM: standard forecast or significant change
Winds: variable direction winds at 3 MPH (3 knots; 1.5 m/s)
Visibility: 6 or more miles 10+ km)
Ceiling: unknown
Clouds: missing
Weather: NSW  (no significant weather)
Text: BECMG 2212/2214 18010KT
Forecast period: 1200 to 1800 UTC 22 July 2019
Forecast type: BECOMING: Conditions expected to become as follows by 1400 UTC 22 July 2019
Winds: from the S (180 degrees) at 12 MPH (10 knots; 5.1 m/s)
Visibility: 6 or more miles 10+ km)
Ceiling: unknown
Clouds: missing
Weather: NSW  (no significant weather)

 ΧΑΡΤΗΣ ΑΕΡΟΔΡΟΜΙΟΥ

 RUNWAY INFORMATION
Διάδρομος 10 Runway length 8005 ft Runway width 164 ft
Runway elevation 9 ft Runway displaced threshold 0 ft Runway heading 104
Διάδρομος 28 Runway length 8005 ft Runway width 164 ft
Runway elevation 19 ft Runway displaced threshold 0 ft Runway heading 284
Διάδρομος 16 Runway length 7907 ft Runway width 197 ft
Runway elevation 14 ft Runway displaced threshold 0 ft Runway heading 166
Διάδρομος 34 Runway length 7907 ft Runway width 197 ft
Runway elevation 22 ft Runway displaced threshold 0 ft Runway heading 346

 ΣΥΧΝΟΤΗΤΕΣ ΑΕΡΟΔΡΟΜΙΟΥ
Τύπος A/G Όνομα RDO Συχνότητα 563.7 MHZ
Τύπος APP Όνομα APP Συχνότητα 120.8 MHZ
Τύπος ATIS Όνομα ATIS Συχνότητα 127.55 MHZ
Τύπος CLD Όνομα CLNC DEL Συχνότητα 118.05 MHZ
Τύπος GND Όνομα GND Συχνότητα 121.7 MHZ
Τύπος TWR Όνομα TWR Συχνότητα 118.1 MHZ

 AIRPORT NEAR NAVIGATION AIDS
Τύπος TACAN Όνομα Mikra Συχνότητα 117400 KHZ
Τύπος TACAN Όνομα Mikra Συχνότητα 115300 KHZ
Τύπος VOR-DME Όνομα Mikra Συχνότητα 110800 KHZ
Τύπος NDB Όνομα Thessaloniki Συχνότητα 345 KHZ
Τύπος VOR-DME Όνομα Thessaloniki Συχνότητα 112100 KHZ



Hellenic Air Force Virtual - All rights reserved 2019 - Powered by VAM